createdAt,value
2018-06-04T00:04:00.000Z,98595
2018-06-04T00:09:00.000Z,98593
2018-06-04T00:14:00.000Z,98598
2018-06-04T00:19:00.000Z,98594
2018-06-04T00:24:00.000Z,98585
2018-06-04T00:29:00.000Z,98581
2018-06-04T00:34:00.000Z,98578
2018-06-04T00:39:00.000Z,98576
2018-06-04T00:44:00.000Z,98565
2018-06-04T00:49:00.000Z,98558
2018-06-04T00:54:00.000Z,98560
2018-06-04T00:59:00.000Z,98558
2018-06-04T01:04:00.000Z,98554
2018-06-04T01:09:00.000Z,98559
2018-06-04T01:14:00.000Z,98565
2018-06-04T01:19:00.000Z,98548
2018-06-04T01:24:00.000Z,98542
2018-06-04T01:29:00.000Z,98540
2018-06-04T01:34:00.000Z,98539
2018-06-04T01:39:00.000Z,98533
2018-06-04T01:44:00.000Z,98521
2018-06-04T01:49:00.000Z,98519
2018-06-04T01:54:00.000Z,98510
2018-06-04T01:59:00.000Z,98511
2018-06-04T02:04:00.000Z,98509
2018-06-04T02:09:00.000Z,98512
2018-06-04T02:14:00.000Z,98503
2018-06-04T02:19:00.000Z,98495
2018-06-04T02:24:00.000Z,98491
2018-06-04T02:29:00.000Z,98491
2018-06-04T02:34:00.000Z,98496
2018-06-04T02:39:00.000Z,98489
2018-06-04T02:44:00.000Z,98476
2018-06-04T02:49:00.000Z,98478
2018-06-04T02:54:00.000Z,98474
2018-06-04T02:59:00.000Z,98483
2018-06-04T03:04:00.000Z,98485
2018-06-04T03:09:00.000Z,98491
2018-06-04T03:14:00.000Z,98478
2018-06-04T03:19:00.000Z,98486
2018-06-04T03:24:00.000Z,98484
2018-06-04T03:29:00.000Z,98494
2018-06-04T03:34:00.000Z,98481
2018-06-04T03:39:00.000Z,98484
2018-06-04T03:44:00.000Z,98483
2018-06-04T03:49:00.000Z,98481
2018-06-04T03:54:00.000Z,98478
2018-06-04T03:59:00.000Z,98481
2018-06-04T04:04:00.000Z,98476
2018-06-04T04:09:00.000Z,98466
2018-06-04T04:14:00.000Z,98482
2018-06-04T04:19:00.000Z,98480
2018-06-04T04:24:00.000Z,98491
2018-06-04T04:30:00.000Z,98485
2018-06-04T04:35:00.000Z,98486
2018-06-04T04:40:00.000Z,98489
2018-06-04T04:45:00.000Z,98488
2018-06-04T04:50:00.000Z,98489
2018-06-04T04:55:00.000Z,98497
2018-06-04T05:00:00.000Z,98500
2018-06-04T05:05:00.000Z,98495
2018-06-04T05:10:00.000Z,98493
2018-06-04T05:15:00.000Z,98487
2018-06-04T05:20:00.000Z,98493
2018-06-04T05:25:00.000Z,98489
2018-06-04T05:30:00.000Z,98492
2018-06-04T05:35:00.000Z,98491
2018-06-04T05:40:00.000Z,98489
2018-06-04T05:45:00.000Z,98486
2018-06-04T05:50:00.000Z,98488
2018-06-04T05:55:00.000Z,98484
2018-06-04T06:00:00.000Z,98489
2018-06-04T06:05:00.000Z,98484
2018-06-04T06:10:00.000Z,98484
2018-06-04T06:15:00.000Z,98479
2018-06-04T06:20:00.000Z,98484
2018-06-04T06:25:00.000Z,98481
2018-06-04T06:30:00.000Z,98482
2018-06-04T06:35:00.000Z,98477
2018-06-04T06:40:00.000Z,98472
2018-06-04T06:45:00.000Z,98473
2018-06-04T06:50:00.000Z,98478
2018-06-04T06:55:00.000Z,98468
2018-06-04T07:00:00.000Z,98465
2018-06-04T07:05:00.000Z,98473
2018-06-04T07:10:00.000Z,98464
2018-06-04T07:15:00.000Z,98470
2018-06-04T07:20:00.000Z,98464
2018-06-04T07:25:00.000Z,98472
2018-06-04T07:30:00.000Z,98476
2018-06-04T07:35:00.000Z,98471
2018-06-04T07:40:00.000Z,98471
2018-06-04T07:45:00.000Z,98481
2018-06-04T07:50:00.000Z,98478
2018-06-04T07:55:00.000Z,98477
2018-06-04T08:00:00.000Z,98474
2018-06-04T08:05:00.000Z,98471
2018-06-04T08:10:00.000Z,98467
2018-06-04T08:15:00.000Z,98464
2018-06-04T08:20:00.000Z,98463
2018-06-04T08:25:00.000Z,98468
2018-06-04T08:30:00.000Z,98464
2018-06-04T08:35:00.000Z,98451
2018-06-04T08:40:00.000Z,98446
2018-06-04T08:45:00.000Z,98438
2018-06-04T08:50:00.000Z,98440
2018-06-04T08:55:00.000Z,98433
2018-06-04T09:00:00.000Z,98438
2018-06-04T09:05:00.000Z,98430
2018-06-04T09:10:00.000Z,98433
2018-06-04T09:15:00.000Z,98430
2018-06-04T09:20:00.000Z,98421
2018-06-04T09:25:00.000Z,98414
2018-06-04T09:30:00.000Z,98412
2018-06-04T09:35:00.000Z,98409
2018-06-04T09:40:00.000Z,98402
2018-06-04T09:45:00.000Z,98397
2018-06-04T09:50:00.000Z,98402
2018-06-04T09:55:00.000Z,98403
2018-06-04T10:00:00.000Z,98402
2018-06-04T10:05:00.000Z,98400
2018-06-04T10:10:00.000Z,98394
2018-06-04T10:15:00.000Z,98399
2018-06-04T10:20:00.000Z,98383
2018-06-04T10:25:00.000Z,98387
2018-06-04T10:30:00.000Z,98379
2018-06-04T10:35:00.000Z,98365
2018-06-04T10:41:00.000Z,98346
2018-06-04T10:46:00.000Z,98351
2018-06-04T10:51:00.000Z,98340
2018-06-04T10:56:00.000Z,98325
2018-06-04T11:01:00.000Z,98321
2018-06-04T11:06:00.000Z,98319
2018-06-04T11:11:00.000Z,98308
2018-06-04T11:16:00.000Z,98303
2018-06-04T11:21:00.000Z,98294
2018-06-04T11:26:00.000Z,98276
2018-06-04T11:31:00.000Z,98281
2018-06-04T11:36:00.000Z,98265
2018-06-04T11:41:00.000Z,98253
2018-06-04T11:46:00.000Z,98243
2018-06-04T11:51:00.000Z,98244
2018-06-04T11:56:00.000Z,98246
2018-06-04T12:01:00.000Z,98235
2018-06-04T12:06:00.000Z,98230
2018-06-04T12:11:00.000Z,98225
2018-06-04T12:16:00.000Z,98219
2018-06-04T12:21:00.000Z,98219
2018-06-04T12:26:00.000Z,98224
2018-06-04T12:31:00.000Z,98218
2018-06-04T12:36:00.000Z,98217
2018-06-04T12:41:00.000Z,98208
2018-06-04T12:46:00.000Z,98204
2018-06-04T12:51:00.000Z,98209
2018-06-04T12:56:00.000Z,98209
2018-06-04T13:01:00.000Z,98206
2018-06-04T13:06:00.000Z,98201
2018-06-04T13:11:00.000Z,98197
2018-06-04T13:16:00.000Z,98192
2018-06-04T13:21:00.000Z,98176
2018-06-04T13:26:00.000Z,98172
2018-06-04T13:31:00.000Z,98172
2018-06-04T13:36:00.000Z,98157
2018-06-04T13:41:00.000Z,98162
2018-06-04T13:46:00.000Z,98145
2018-06-04T13:51:00.000Z,98138
2018-06-04T13:56:00.000Z,98147
2018-06-04T14:01:00.000Z,98131
2018-06-04T14:06:00.000Z,98127
2018-06-04T14:11:00.000Z,98127
2018-06-04T14:16:00.000Z,98116
2018-06-04T14:21:00.000Z,98122
2018-06-04T14:26:00.000Z,98117
2018-06-04T14:31:00.000Z,98104
2018-06-04T14:36:00.000Z,98097
2018-06-04T14:41:00.000Z,98093
2018-06-04T14:46:00.000Z,98091
2018-06-04T14:51:00.000Z,98086
2018-06-04T14:56:00.000Z,98079
2018-06-04T15:01:00.000Z,98066
2018-06-04T15:06:00.000Z,98065
2018-06-04T15:11:00.000Z,98069
2018-06-04T15:16:00.000Z,98056
2018-06-04T15:21:00.000Z,98063
2018-06-04T15:26:00.000Z,98060
2018-06-04T15:31:00.000Z,98052
2018-06-04T15:36:00.000Z,98051
2018-06-04T15:41:00.000Z,98052
2018-06-04T15:46:00.000Z,98039
2018-06-04T15:51:00.000Z,98035
2018-06-04T15:56:00.000Z,98037
2018-06-04T16:01:00.000Z,98022
2018-06-04T16:06:00.000Z,98015
2018-06-04T16:11:00.000Z,98009
2018-06-04T16:16:00.000Z,98011
2018-06-04T16:21:00.000Z,98000
2018-06-04T16:26:00.000Z,98001
2018-06-04T16:31:00.000Z,98004
2018-06-04T16:36:00.000Z,98000
2018-06-04T16:41:00.000Z,98002
2018-06-04T16:46:00.000Z,97994
2018-06-04T16:51:00.000Z,98001
2018-06-04T16:57:00.000Z,98007
2018-06-04T17:02:00.000Z,98000
2018-06-04T17:07:00.000Z,98004
2018-06-04T17:12:00.000Z,98001
2018-06-04T17:17:00.000Z,98013
2018-06-04T17:22:00.000Z,98021
2018-06-04T17:27:00.000Z,98010
2018-06-04T17:32:00.000Z,98018
2018-06-04T17:37:00.000Z,98021
2018-06-04T17:42:00.000Z,98020
2018-06-04T17:47:00.000Z,98023
2018-06-04T17:52:00.000Z,98032
2018-06-04T17:57:00.000Z,98023
2018-06-04T18:02:00.000Z,98027
2018-06-04T18:07:00.000Z,98028
2018-06-04T18:12:00.000Z,98032
2018-06-04T18:17:00.000Z,98039
2018-06-04T18:22:00.000Z,98037
2018-06-04T18:27:00.000Z,98033
2018-06-04T18:32:00.000Z,98031
2018-06-04T18:37:00.000Z,98024
2018-06-04T18:42:00.000Z,98016
2018-06-04T18:47:00.000Z,98020
2018-06-04T18:52:00.000Z,98023
2018-06-04T18:57:00.000Z,98026
2018-06-04T19:02:00.000Z,98027
2018-06-04T19:07:00.000Z,98035
2018-06-04T19:12:00.000Z,98031
2018-06-04T19:17:00.000Z,98037
2018-06-04T19:22:00.000Z,98032
2018-06-04T19:27:00.000Z,98041
2018-06-04T19:32:00.000Z,98046
2018-06-04T19:37:00.000Z,98053
2018-06-04T19:42:00.000Z,98052
2018-06-04T19:47:00.000Z,98056
2018-06-04T19:52:00.000Z,98041
2018-06-04T19:57:00.000Z,98040
2018-06-04T20:02:00.000Z,98038
2018-06-04T20:07:00.000Z,98041
2018-06-04T20:12:00.000Z,98032
2018-06-04T20:17:00.000Z,98039
2018-06-04T20:22:00.000Z,98051
2018-06-04T20:27:00.000Z,98044
2018-06-04T20:32:00.000Z,98044
2018-06-04T20:37:00.000Z,98045
2018-06-04T20:42:00.000Z,98049
2018-06-04T20:47:00.000Z,98041
2018-06-04T20:52:00.000Z,98045
2018-06-04T20:57:00.000Z,98037
2018-06-04T21:02:00.000Z,98040
2018-06-04T21:07:00.000Z,98048
2018-06-04T21:12:00.000Z,98043
2018-06-04T21:17:00.000Z,98048
2018-06-04T21:22:00.000Z,98048
2018-06-04T21:27:00.000Z,98046
2018-06-04T21:32:00.000Z,98046
2018-06-04T21:37:00.000Z,98050
2018-06-04T21:42:00.000Z,98046
2018-06-04T21:47:00.000Z,98044
2018-06-04T21:52:00.000Z,98050
2018-06-04T21:57:00.000Z,98055
2018-06-04T22:02:00.000Z,98048
2018-06-04T22:07:00.000Z,98042
2018-06-04T22:12:00.000Z,98043
2018-06-04T22:17:00.000Z,98035
2018-06-04T22:22:00.000Z,98033
2018-06-04T22:27:00.000Z,98028
2018-06-04T22:33:00.000Z,98031
2018-06-04T22:38:00.000Z,98034
2018-06-04T22:43:00.000Z,98033
2018-06-04T22:48:00.000Z,98019
2018-06-04T22:53:00.000Z,98018
2018-06-04T22:58:00.000Z,98019
2018-06-04T23:03:00.000Z,98009
2018-06-04T23:08:00.000Z,98026
2018-06-04T23:13:00.000Z,98027
2018-06-04T23:18:00.000Z,98022
2018-06-04T23:23:00.000Z,98008
2018-06-04T23:28:00.000Z,98011
2018-06-04T23:33:00.000Z,98018
2018-06-04T23:38:00.000Z,98012
2018-06-04T23:43:00.000Z,98013
2018-06-04T23:48:00.000Z,98010
2018-06-04T23:53:00.000Z,98016
2018-06-04T23:58:00.000Z,98009
